createdAt,value
2017-11-17T00:00:53.397Z,0
2017-11-17T00:01:53.353Z,0
2017-11-17T00:02:53.122Z,0
2017-11-17T00:03:53.369Z,0
2017-11-17T00:04:52.872Z,0
2017-11-17T00:05:53.661Z,0
2017-11-17T00:06:53.686Z,0
2017-11-17T00:07:53.682Z,0
2017-11-17T00:08:53.435Z,0
2017-11-17T00:09:53.202Z,0
2017-11-17T00:10:53.214Z,0
2017-11-17T00:11:53.235Z,0
2017-11-17T00:12:53.242Z,0
2017-11-17T00:13:52.990Z,0
2017-11-17T00:14:53.000Z,0
2017-11-17T00:15:53.783Z,0
2017-11-17T00:16:53.824Z,0
2017-11-17T00:17:53.092Z,0
2017-11-17T00:18:53.579Z,0
2017-11-17T00:19:53.841Z,0
2017-11-17T00:20:53.595Z,0
2017-11-17T00:21:53.371Z,0
2017-11-17T00:22:53.892Z,0
2017-11-17T00:23:53.379Z,0
2017-11-17T00:24:53.909Z,0
2017-11-17T00:25:53.925Z,0
2017-11-17T00:26:53.420Z,0
2017-11-17T00:27:53.683Z,0
2017-11-17T00:28:53.697Z,0
2017-11-17T00:29:53.712Z,0
2017-11-17T00:30:53.982Z,0
2017-11-17T00:31:53.742Z,0
2017-11-17T00:32:53.543Z,0
2017-11-17T00:33:53.765Z,0
2017-11-17T00:34:54.040Z,0
2017-11-17T00:35:53.527Z,0
2017-11-17T00:36:54.079Z,0
2017-11-17T00:37:53.818Z,0
2017-11-17T00:38:53.832Z,0
2017-11-17T00:39:53.858Z,0
2017-11-17T00:40:54.128Z,0
2017-11-17T00:41:54.143Z,0
2017-11-17T00:42:53.887Z,0
2017-11-17T00:43:53.897Z,0
2017-11-17T00:44:54.173Z,0
2017-11-17T00:45:54.182Z,0
2017-11-17T00:46:53.674Z,0
2017-11-17T00:47:53.740Z,0
2017-11-17T00:48:53.965Z,0
2017-11-17T00:49:53.722Z,0
2017-11-17T00:50:53.728Z,0
2017-11-17T00:51:53.741Z,0
2017-11-17T00:52:53.794Z,0
2017-11-17T00:53:54.028Z,0
2017-11-17T00:54:53.534Z,0
2017-11-17T00:55:54.313Z,0
2017-11-17T00:56:53.818Z,0
2017-11-17T00:57:54.093Z,0
2017-11-17T00:58:53.835Z,0
2017-11-17T00:59:54.365Z,0
2017-11-17T01:00:54.135Z,0
2017-11-17T01:01:53.871Z,0
2017-11-17T01:02:54.197Z,0
2017-11-17T01:03:54.159Z,0
2017-11-17T01:04:54.441Z,0
2017-11-17T01:05:54.191Z,0
2017-11-17T01:06:54.459Z,0
2017-11-17T01:07:54.466Z,0
2017-11-17T01:08:54.223Z,0
2017-11-17T01:09:54.238Z,0
2017-11-17T01:10:54.251Z,0
2017-11-17T01:11:54.279Z,0
2017-11-17T01:12:54.026Z,0
2017-11-17T01:13:54.037Z,0
2017-11-17T01:14:54.301Z,0
2017-11-17T01:15:54.316Z,0
2017-11-17T01:16:54.367Z,0
2017-11-17T01:17:54.396Z,0
2017-11-17T01:18:54.369Z,0
2017-11-17T01:19:54.375Z,0
2017-11-17T01:20:54.382Z,0
2017-11-17T01:21:54.659Z,0
2017-11-17T01:22:54.410Z,0
2017-11-17T01:23:54.684Z,0
2017-11-17T01:24:54.444Z,0
2017-11-17T01:25:54.467Z,0
2017-11-17T01:26:54.725Z,0
2017-11-17T01:27:54.484Z,0
2017-11-17T01:28:54.495Z,0
2017-11-17T01:29:54.758Z,0
2017-11-17T01:30:54.532Z,0
2017-11-17T01:31:54.541Z,0
2017-11-17T01:32:54.857Z,0
2017-11-17T01:33:54.565Z,0
2017-11-17T01:34:54.581Z,0
2017-11-17T01:35:54.607Z,0
2017-11-17T01:36:54.614Z,0
2017-11-17T01:37:54.614Z,0
2017-11-17T01:38:54.626Z,0
2017-11-17T01:39:54.903Z,0
2017-11-17T01:40:54.406Z,0
2017-11-17T01:41:54.662Z,0
2017-11-17T01:42:54.946Z,0
2017-11-17T01:43:54.433Z,0
2017-11-17T01:44:54.442Z,0
2017-11-17T01:45:54.711Z,0
2017-11-17T01:46:54.986Z,0
2017-11-17T01:47:54.809Z,0
2017-11-17T01:48:54.495Z,0
2017-11-17T01:49:54.535Z,0
2017-11-17T01:50:54.277Z,0
2017-11-17T01:51:54.798Z,0
2017-11-17T01:52:54.810Z,0
2017-11-17T01:53:54.592Z,0
2017-11-17T01:54:54.838Z,0
2017-11-17T01:55:54.592Z,0
2017-11-17T01:56:54.871Z,0
2017-11-17T01:57:54.873Z,0
2017-11-17T01:58:54.892Z,0
2017-11-17T01:59:54.903Z,0
2017-11-17T02:00:54.914Z,0
2017-11-17T02:01:54.416Z,0
2017-11-17T02:02:55.028Z,0
2017-11-17T02:03:55.218Z,0
2017-11-17T02:04:55.256Z,0
2017-11-17T02:05:54.986Z,0
2017-11-17T02:06:55.253Z,0
2017-11-17T02:07:55.013Z,0
2017-11-17T02:08:54.770Z,0
2017-11-17T02:09:54.778Z,0
2017-11-17T02:10:54.790Z,0
2017-11-17T02:11:55.323Z,0
2017-11-17T02:12:55.343Z,0
2017-11-17T02:13:54.825Z,0
2017-11-17T02:14:54.846Z,0
2017-11-17T02:15:54.878Z,0
2017-11-17T02:16:55.132Z,0
2017-11-17T02:17:55.418Z,0
2017-11-17T02:18:54.956Z,0
2017-11-17T02:19:54.650Z,0
2017-11-17T02:20:55.173Z,0
2017-11-17T02:21:54.939Z,0
2017-11-17T02:22:55.204Z,0
2017-11-17T02:23:55.217Z,0
2017-11-17T02:24:55.231Z,0
2017-11-17T02:25:54.989Z,0
2017-11-17T02:26:55.264Z,0
2017-11-17T02:27:55.266Z,0
2017-11-17T02:28:55.545Z,0
2017-11-17T02:29:55.040Z,0
2017-11-17T02:30:55.581Z,0
2017-11-17T02:31:55.334Z,0
2017-11-17T02:32:55.598Z,0
2017-11-17T02:33:55.142Z,0
2017-11-17T02:34:55.640Z,0
2017-11-17T02:35:55.377Z,0
2017-11-17T02:36:55.426Z,0
2017-11-17T02:37:55.153Z,0
2017-11-17T02:38:55.713Z,0
2017-11-17T02:39:55.446Z,0
2017-11-17T02:40:55.449Z,0
2017-11-17T02:41:55.200Z,0
2017-11-17T02:42:54.953Z,0
2017-11-17T02:43:55.764Z,0
2017-11-17T02:44:55.526Z,0
2017-11-17T02:45:55.254Z,0
2017-11-17T02:46:55.529Z,0
2017-11-17T02:47:55.540Z,0
2017-11-17T02:48:55.900Z,0
2017-11-17T02:49:55.820Z,0
2017-11-17T02:50:55.840Z,0
2017-11-17T02:51:55.852Z,0
2017-11-17T02:52:55.633Z,0
2017-11-17T02:53:55.622Z,0
2017-11-17T02:54:55.890Z,0
2017-11-17T02:55:55.664Z,0
2017-11-17T02:56:55.397Z,0
2017-11-17T02:57:55.925Z,0
2017-11-17T02:58:55.945Z,0
2017-11-17T02:59:55.704Z,0
2017-11-17T03:00:55.975Z,0
2017-11-17T03:01:55.728Z,0
2017-11-17T03:02:55.226Z,0
2017-11-17T03:03:55.496Z,0
2017-11-17T03:04:56.031Z,0
2017-11-17T03:05:55.774Z,0
2017-11-17T03:06:55.349Z,0
2017-11-17T03:07:55.540Z,0
2017-11-17T03:08:55.843Z,0
2017-11-17T03:09:55.565Z,0
2017-11-17T03:10:55.840Z,0
2017-11-17T03:11:55.591Z,0
2017-11-17T03:12:55.636Z,0
2017-11-17T03:13:55.878Z,0
2017-11-17T03:14:55.635Z,0
2017-11-17T03:15:56.161Z,0
2017-11-17T03:16:55.920Z,0
2017-11-17T03:17:56.190Z,0
2017-11-17T03:18:56.210Z,0
2017-11-17T03:19:56.230Z,0
2017-11-17T03:20:56.230Z,0
2017-11-17T03:21:55.739Z,0
2017-11-17T03:22:56.015Z,0
2017-11-17T03:23:56.276Z,0
2017-11-17T03:24:56.289Z,0
2017-11-17T03:25:56.056Z,0
2017-11-17T03:26:56.309Z,0
2017-11-17T03:27:56.326Z,0
2017-11-17T03:28:55.567Z,0
2017-11-17T03:29:56.370Z,0
2017-11-17T03:30:56.391Z,0
2017-11-17T03:31:56.145Z,0
2017-11-17T03:32:56.403Z,0
2017-11-17T03:33:56.143Z,0
2017-11-17T03:34:56.431Z,0
2017-11-17T03:35:56.437Z,0
2017-11-17T03:36:56.452Z,0
2017-11-17T03:37:56.510Z,0
2017-11-17T03:38:56.480Z,0
2017-11-17T03:39:56.233Z,0
2017-11-17T03:40:56.507Z,0
2017-11-17T03:41:56.549Z,0
2017-11-17T03:42:56.268Z,0
2017-11-17T03:43:56.282Z,0
2017-11-17T03:44:56.560Z,0
2017-11-17T03:45:56.306Z,0
2017-11-17T03:46:56.328Z,0
2017-11-17T03:47:56.588Z,0
2017-11-17T03:48:56.346Z,0
2017-11-17T03:49:56.365Z,0
2017-11-17T03:50:56.634Z,0
2017-11-17T03:51:56.124Z,0
2017-11-17T03:52:56.711Z,0
2017-11-17T03:53:56.689Z,0
2017-11-17T03:54:56.722Z,0
2017-11-17T03:55:56.706Z,0
2017-11-17T03:56:56.230Z,0
2017-11-17T03:57:56.761Z,0
2017-11-17T03:58:56.746Z,0
2017-11-17T03:59:56.495Z,0
2017-11-17T04:00:56.775Z,0
2017-11-17T04:01:56.008Z,0
2017-11-17T04:02:56.537Z,0
2017-11-17T04:03:56.552Z,0
2017-11-17T04:04:56.304Z,0
2017-11-17T04:05:56.572Z,0
2017-11-17T04:06:56.846Z,0
2017-11-17T04:07:56.602Z,0
2017-11-17T04:08:56.874Z,0
2017-11-17T04:09:56.373Z,0
2017-11-17T04:10:56.123Z,0
2017-11-17T04:11:56.975Z,0
2017-11-17T04:12:56.672Z,0
2017-11-17T04:13:56.423Z,0
2017-11-17T04:14:56.701Z,0
2017-11-17T04:15:56.449Z,0
2017-11-17T04:16:56.717Z,0
2017-11-17T04:17:56.729Z,0
2017-11-17T04:18:57.003Z,0
2017-11-17T04:19:56.535Z,0
2017-11-17T04:20:56.770Z,0
2017-11-17T04:21:56.787Z,0
2017-11-17T04:22:56.797Z,0
2017-11-17T04:23:57.068Z,0
2017-11-17T04:24:56.820Z,0
2017-11-17T04:25:57.116Z,0
2017-11-17T04:26:56.610Z,0
2017-11-17T04:27:56.871Z,0
2017-11-17T04:28:56.367Z,0
2017-11-17T04:29:56.682Z,0
2017-11-17T04:30:56.917Z,0
2017-11-17T04:31:57.195Z,0
2017-11-17T04:32:56.945Z,0
2017-11-17T04:33:57.199Z,0
2017-11-17T04:34:56.960Z,0
2017-11-17T04:35:56.976Z,0
2017-11-17T04:36:56.730Z,0
2017-11-17T04:37:56.487Z,0
2017-11-17T04:38:57.019Z,0
2017-11-17T04:39:57.040Z,0
2017-11-17T04:40:56.785Z,0
2017-11-17T04:41:57.066Z,0
2017-11-17T04:42:56.820Z,0
2017-11-17T04:43:57.082Z,0
2017-11-17T04:44:57.403Z,0
2017-11-17T04:45:56.709Z,0
2017-11-17T04:46:57.399Z,0
2017-11-17T04:47:56.905Z,0
2017-11-17T04:48:57.161Z,0
2017-11-17T04:49:57.167Z,0
2017-11-17T04:50:57.184Z,0
2017-11-17T04:51:57.189Z,0
2017-11-17T04:52:56.689Z,0
2017-11-17T04:53:57.495Z,0
2017-11-17T04:54:57.227Z,0
2017-11-17T04:55:56.990Z,0
2017-11-17T04:56:57.276Z,0
2017-11-17T04:57:57.268Z,0
2017-11-17T04:58:57.332Z,0
2017-11-17T04:59:57.038Z,0
2017-11-17T05:00:57.579Z,0
2017-11-17T05:01:57.629Z,0
2017-11-17T05:02:57.344Z,0
2017-11-17T05:03:57.359Z,0
2017-11-17T05:04:57.382Z,0
2017-11-17T05:05:57.389Z,0
2017-11-17T05:06:57.392Z,0
2017-11-17T05:07:57.146Z,0
2017-11-17T05:08:57.154Z,0
2017-11-17T05:09:57.460Z,0
2017-11-17T05:10:57.184Z,0
2017-11-17T05:11:57.207Z,0
2017-11-17T05:12:57.779Z,0
2017-11-17T05:13:57.237Z,0
2017-11-17T05:14:57.755Z,0
2017-11-17T05:15:57.057Z,0
2017-11-17T05:16:57.593Z,0
2017-11-17T05:17:57.299Z,0
2017-11-17T05:18:57.558Z,0
2017-11-17T05:19:57.827Z,0
2017-11-17T05:20:57.065Z,0
2017-11-17T05:21:57.599Z,0
2017-11-17T05:22:57.095Z,0
2017-11-17T05:23:57.901Z,0
2017-11-17T05:24:57.387Z,0
2017-11-17T05:25:57.933Z,0
2017-11-17T05:26:57.661Z,0
2017-11-17T05:27:57.433Z,0
2017-11-17T05:28:57.684Z,0
2017-11-17T05:29:57.703Z,0
2017-11-17T05:30:57.520Z,0
2017-11-17T05:31:58.083Z,0
2017-11-17T05:32:57.536Z,0
2017-11-17T05:33:57.758Z,0
2017-11-17T05:34:57.770Z,0
2017-11-17T05:35:58.059Z,0
2017-11-17T05:36:58.263Z,0
2017-11-17T05:37:57.295Z,0
2017-11-17T05:38:57.830Z,0
2017-11-17T05:39:57.581Z,0
2017-11-17T05:40:57.595Z,0
2017-11-17T05:41:57.879Z,0
2017-11-17T05:42:58.157Z,0
2017-11-17T05:43:57.898Z,0
2017-11-17T05:44:57.915Z,0
2017-11-17T05:45:57.922Z,0
2017-11-17T05:46:57.987Z,0
2017-11-17T05:47:58.211Z,0
2017-11-17T05:48:58.216Z,0
2017-11-17T05:49:57.970Z,0
2017-11-17T05:50:57.726Z,0
2017-11-17T05:51:57.742Z,0
2017-11-17T05:52:58.011Z,0
2017-11-17T05:53:58.025Z,0
2017-11-17T05:54:57.775Z,0
2017-11-17T05:55:57.538Z,0
2017-11-17T05:56:57.800Z,0
2017-11-17T05:57:57.593Z,0
2017-11-17T05:58:57.843Z,0
2017-11-17T05:59:57.847Z,0
2017-11-17T06:00:58.121Z,0
2017-11-17T06:01:58.441Z,0
2017-11-17T06:02:57.893Z,0
2017-11-17T06:03:58.159Z,0
2017-11-17T06:04:58.181Z,0
2017-11-17T06:05:58.455Z,0
2017-11-17T06:06:57.949Z,0
2017-11-17T06:07:58.215Z,0
2017-11-17T06:08:58.272Z,0
2017-11-17T06:09:58.241Z,0
2017-11-17T06:10:58.004Z,0
2017-11-17T06:11:58.271Z,0
2017-11-17T06:12:58.296Z,0
2017-11-17T06:13:58.312Z,0
2017-11-17T06:14:58.317Z,0
2017-11-17T06:15:58.328Z,0
2017-11-17T06:16:58.085Z,0
2017-11-17T06:17:58.148Z,0
2017-11-17T06:18:58.662Z,0
2017-11-17T06:19:58.648Z,0
2017-11-17T06:20:58.405Z,0
2017-11-17T06:21:58.686Z,0
2017-11-17T06:22:58.675Z,0
2017-11-17T06:23:58.449Z,0
2017-11-17T06:24:57.930Z,0
2017-11-17T06:25:58.484Z,0
2017-11-17T06:26:58.481Z,0
2017-11-17T06:27:58.744Z,0
2017-11-17T06:28:58.246Z,5
2017-11-17T06:29:58.526Z,5
2017-11-17T06:30:58.540Z,5
2017-11-17T06:31:58.544Z,5
2017-11-17T06:32:58.348Z,5
2017-11-17T06:33:58.315Z,5
2017-11-17T06:34:58.628Z,10
2017-11-17T06:35:58.855Z,10
2017-11-17T06:36:58.878Z,10
2017-11-17T06:37:58.626Z,10
2017-11-17T06:38:58.662Z,15
2017-11-17T06:39:58.910Z,15
2017-11-17T06:40:58.674Z,15
2017-11-17T06:41:58.944Z,15
2017-11-17T06:42:58.442Z,20
2017-11-17T06:43:58.189Z,20
2017-11-17T06:44:58.476Z,20
2017-11-17T06:45:58.228Z,20
2017-11-17T06:46:58.240Z,20
2017-11-17T06:47:59.064Z,20
2017-11-17T06:48:58.779Z,25
2017-11-17T06:49:58.814Z,25
2017-11-17T06:50:59.061Z,25
2017-11-17T06:51:58.827Z,25
2017-11-17T06:52:59.086Z,25
2017-11-17T06:53:59.119Z,25
2017-11-17T06:54:58.604Z,25
2017-11-17T06:55:58.892Z,25
2017-11-17T06:56:59.146Z,25
2017-11-17T06:57:59.169Z,25
2017-11-17T06:58:58.668Z,30
2017-11-17T06:59:58.683Z,30
2017-11-17T07:00:59.201Z,30
2017-11-17T07:01:58.697Z,30
2017-11-17T07:02:59.273Z,30
2017-11-17T07:03:58.987Z,35
2017-11-17T07:04:58.996Z,35
2017-11-17T07:05:59.283Z,35
2017-11-17T07:06:59.276Z,35
2017-11-17T07:07:58.549Z,35
2017-11-17T07:08:59.058Z,35
2017-11-17T07:09:58.821Z,40
2017-11-17T07:10:58.838Z,40
2017-11-17T07:11:59.104Z,45
2017-11-17T07:12:59.116Z,45
2017-11-17T07:13:59.154Z,40
2017-11-17T07:14:59.143Z,40
2017-11-17T07:15:58.911Z,35
2017-11-17T07:16:59.179Z,35
2017-11-17T07:17:59.449Z,35
2017-11-17T07:18:59.512Z,35
2017-11-17T07:19:59.218Z,35
2017-11-17T07:20:59.278Z,40
2017-11-17T07:21:59.497Z,40
2017-11-17T07:22:58.995Z,45
2017-11-17T07:23:59.271Z,50
2017-11-17T07:24:59.289Z,50
2017-11-17T07:25:59.316Z,50
2017-11-17T07:26:59.322Z,45
2017-11-17T07:27:59.072Z,40
2017-11-17T07:28:58.827Z,40
2017-11-17T07:29:59.353Z,40
2017-11-17T07:30:59.390Z,40
2017-11-17T07:31:59.140Z,40
2017-11-17T07:32:59.409Z,40
2017-11-17T07:33:59.169Z,40
2017-11-17T07:34:58.911Z,40
2017-11-17T07:35:58.936Z,40
2017-11-17T07:36:59.482Z,45
2017-11-17T07:37:59.269Z,45
2017-11-17T07:38:59.483Z,45
2017-11-17T07:39:59.491Z,50
2017-11-17T07:40:59.765Z,50
2017-11-17T07:41:59.535Z,50
2017-11-17T07:42:59.540Z,45
2017-11-17T07:43:59.809Z,45
2017-11-17T07:44:59.563Z,45
2017-11-17T07:45:59.841Z,50
2017-11-17T07:46:59.866Z,50
2017-11-17T07:47:59.619Z,50
2017-11-17T07:48:59.890Z,55
2017-11-17T07:49:59.915Z,55
2017-11-17T07:50:59.388Z,55
2017-11-17T07:51:59.943Z,55
2017-11-17T07:52:59.471Z,55
2017-11-17T07:53:59.962Z,55
2017-11-17T07:54:59.192Z,60
2017-11-17T07:55:59.987Z,60
2017-11-17T07:56:59.490Z,55
2017-11-17T07:57:59.503Z,55
2017-11-17T07:58:59.268Z,60
2017-11-17T07:59:59.775Z,60
2017-11-17T08:01:00.065Z,65
2017-11-17T08:01:59.815Z,70
2017-11-17T08:02:59.843Z,70
2017-11-17T08:03:59.831Z,70
2017-11-17T08:04:59.331Z,70
2017-11-17T08:05:59.869Z,70
2017-11-17T08:06:59.875Z,75
2017-11-17T08:08:00.200Z,80
2017-11-17T08:08:59.648Z,80
2017-11-17T08:09:59.668Z,75
2017-11-17T08:11:00.195Z,75
2017-11-17T08:11:59.998Z,80
2017-11-17T08:12:59.705Z,85
2017-11-17T08:14:00.002Z,90
2017-11-17T08:15:00.251Z,90
2017-11-17T08:15:59.752Z,90
2017-11-17T08:17:00.268Z,95
2017-11-17T08:18:00.029Z,95
2017-11-17T08:19:00.041Z,95
2017-11-17T08:20:00.057Z,95
2017-11-17T08:20:59.561Z,95
2017-11-17T08:22:00.094Z,90
2017-11-17T08:23:00.388Z,90
2017-11-17T08:24:00.408Z,90
2017-11-17T08:24:59.884Z,85
2017-11-17T08:26:00.415Z,85
2017-11-17T08:27:00.169Z,90
2017-11-17T08:28:00.505Z,90
2017-11-17T08:29:00.460Z,90
2017-11-17T08:29:59.956Z,90
2017-11-17T08:30:59.978Z,90
2017-11-17T08:32:00.245Z,90
2017-11-17T08:33:00.513Z,95
2017-11-17T08:34:00.015Z,95
2017-11-17T08:35:00.291Z,95
2017-11-17T08:36:00.047Z,95
2017-11-17T08:37:00.054Z,95
2017-11-17T08:38:00.068Z,90
2017-11-17T08:39:00.370Z,90
2017-11-17T08:40:00.648Z,90
2017-11-17T08:41:00.630Z,85
2017-11-17T08:42:00.390Z,85
2017-11-17T08:43:00.397Z,85
2017-11-17T08:44:00.418Z,85
2017-11-17T08:45:00.455Z,85
2017-11-17T08:45:59.982Z,85
2017-11-17T08:47:00.723Z,90
2017-11-17T08:48:00.474Z,95
2017-11-17T08:49:00.485Z,100
2017-11-17T08:50:00.253Z,110
2017-11-17T08:51:00.785Z,115
2017-11-17T08:52:00.275Z,125
2017-11-17T08:53:00.825Z,135
2017-11-17T08:54:00.563Z,145
2017-11-17T08:55:00.842Z,150
2017-11-17T08:56:00.341Z,155
2017-11-17T08:57:00.880Z,160
2017-11-17T08:58:00.882Z,165
2017-11-17T08:59:00.647Z,170
2017-11-17T09:00:00.970Z,170
2017-11-17T09:01:00.677Z,175
2017-11-17T09:02:00.684Z,175
2017-11-17T09:03:00.985Z,175
2017-11-17T09:04:01.001Z,175
2017-11-17T09:05:00.738Z,175
2017-11-17T09:06:01.025Z,170
2017-11-17T09:07:00.764Z,175
2017-11-17T09:08:00.777Z,175
2017-11-17T09:09:00.804Z,185
2017-11-17T09:10:00.830Z,195
2017-11-17T09:11:00.565Z,205
2017-11-17T09:12:00.836Z,215
2017-11-17T09:13:01.118Z,220
2017-11-17T09:14:00.875Z,230
2017-11-17T09:15:01.146Z,235
2017-11-17T09:16:00.642Z,240
2017-11-17T09:17:00.918Z,245
2017-11-17T09:18:00.992Z,250
2017-11-17T09:19:00.695Z,255
2017-11-17T09:20:01.271Z,255
2017-11-17T09:21:01.246Z,250
2017-11-17T09:22:01.008Z,245
2017-11-17T09:23:01.020Z,235
2017-11-17T09:24:00.780Z,225
2017-11-17T09:25:01.062Z,210
2017-11-17T09:26:01.095Z,195
2017-11-17T09:27:01.366Z,185
2017-11-17T09:28:00.834Z,170
2017-11-17T09:29:01.113Z,160
2017-11-17T09:30:01.383Z,150
2017-11-17T09:31:01.398Z,140
2017-11-17T09:32:00.960Z,140
2017-11-17T09:33:01.000Z,135
2017-11-17T09:34:01.507Z,130
2017-11-17T09:35:00.952Z,130
2017-11-17T09:36:01.239Z,130
2017-11-17T09:37:01.015Z,125
2017-11-17T09:38:00.998Z,125
2017-11-17T09:39:01.539Z,120
2017-11-17T09:40:01.554Z,115
2017-11-17T09:41:01.311Z,110
2017-11-17T09:42:01.588Z,110
2017-11-17T09:43:01.601Z,105
2017-11-17T09:44:01.365Z,105
2017-11-17T09:45:01.629Z,105
2017-11-17T09:46:01.691Z,105
2017-11-17T09:47:01.404Z,105
2017-11-17T09:48:01.484Z,105
2017-11-17T09:49:01.439Z,105
2017-11-17T09:50:01.458Z,100
2017-11-17T09:51:01.467Z,100
2017-11-17T09:52:01.276Z,100
2017-11-17T09:53:01.498Z,100
2017-11-17T09:54:01.778Z,100
2017-11-17T09:55:01.799Z,100
2017-11-17T09:56:01.812Z,100
2017-11-17T09:57:01.581Z,100
2017-11-17T09:58:01.599Z,105
2017-11-17T09:59:01.853Z,110
2017-11-17T10:00:01.612Z,115
2017-11-17T10:01:01.636Z,125
2017-11-17T10:02:01.400Z,140
2017-11-17T10:03:01.829Z,150
2017-11-17T10:04:01.675Z,165
2017-11-17T10:05:01.691Z,180
2017-11-17T10:06:01.724Z,195
2017-11-17T10:07:01.785Z,205
2017-11-17T10:08:01.738Z,220
2017-11-17T10:09:01.752Z,235
2017-11-17T10:10:01.798Z,250
2017-11-17T10:11:02.036Z,260
2017-11-17T10:12:01.388Z,270
2017-11-17T10:13:02.078Z,280
2017-11-17T10:14:01.580Z,280
2017-11-17T10:15:01.850Z,280
2017-11-17T10:16:01.355Z,275
2017-11-17T10:17:01.875Z,265
2017-11-17T10:18:02.151Z,260
2017-11-17T10:19:01.924Z,255
2017-11-17T10:20:01.932Z,250
2017-11-17T10:21:01.693Z,245
2017-11-17T10:22:02.010Z,240
2017-11-17T10:23:02.265Z,240
2017-11-17T10:24:02.255Z,235
2017-11-17T10:25:01.771Z,230
2017-11-17T10:26:02.027Z,230
2017-11-17T10:27:01.280Z,230
2017-11-17T10:28:02.073Z,230
2017-11-17T10:29:01.823Z,235
2017-11-17T10:30:02.377Z,240
2017-11-17T10:31:01.862Z,240
2017-11-17T10:32:02.403Z,240
2017-11-17T10:33:02.149Z,230
2017-11-17T10:34:02.169Z,225
2017-11-17T10:35:02.175Z,220
2017-11-17T10:36:02.457Z,215
2017-11-17T10:37:02.473Z,210
2017-11-17T10:38:02.494Z,210
2017-11-17T10:39:01.994Z,210
2017-11-17T10:40:02.336Z,210
2017-11-17T10:41:02.290Z,210
2017-11-17T10:42:02.564Z,210
2017-11-17T10:43:02.575Z,205
2017-11-17T10:44:02.336Z,205
2017-11-17T10:45:02.369Z,200
2017-11-17T10:46:02.377Z,200
2017-11-17T10:47:02.655Z,200
2017-11-17T10:48:02.660Z,200
2017-11-17T10:49:02.179Z,200
2017-11-17T10:50:02.714Z,205
2017-11-17T10:51:02.730Z,205
2017-11-17T10:52:02.478Z,205
2017-11-17T10:53:02.492Z,210
2017-11-17T10:54:02.532Z,210
2017-11-17T10:55:02.030Z,215
2017-11-17T10:56:02.281Z,215
2017-11-17T10:57:02.552Z,215
2017-11-17T10:58:02.571Z,215
2017-11-17T10:59:02.643Z,210
2017-11-17T11:00:02.884Z,205
2017-11-17T11:01:02.622Z,200
2017-11-17T11:02:02.908Z,190
2017-11-17T11:03:02.677Z,185
2017-11-17T11:04:02.681Z,180
2017-11-17T11:05:02.713Z,175
2017-11-17T11:06:02.194Z,175
2017-11-17T11:07:02.472Z,175
2017-11-17T11:08:02.999Z,175
2017-11-17T11:09:03.040Z,170
2017-11-17T11:10:02.781Z,170
2017-11-17T11:11:02.804Z,170
2017-11-17T11:12:03.142Z,170
2017-11-17T11:13:03.093Z,175
2017-11-17T11:14:03.256Z,175
2017-11-17T11:15:02.869Z,180
2017-11-17T11:16:03.142Z,185
2017-11-17T11:17:02.899Z,190
2017-11-17T11:18:03.175Z,195
2017-11-17T11:19:03.200Z,200
2017-11-17T11:20:02.982Z,205
2017-11-17T11:21:03.228Z,215
2017-11-17T11:22:03.252Z,220
2017-11-17T11:23:03.269Z,220
2017-11-17T11:24:03.018Z,220
2017-11-17T11:25:03.295Z,220
2017-11-17T11:26:02.794Z,220
2017-11-17T11:27:03.353Z,215
2017-11-17T11:28:03.358Z,215
2017-11-17T11:29:03.414Z,215
2017-11-17T11:30:03.121Z,215
2017-11-17T11:31:03.399Z,215
2017-11-17T11:32:03.415Z,215
2017-11-17T11:33:02.924Z,215
2017-11-17T11:34:03.193Z,215
2017-11-17T11:35:02.949Z,205
2017-11-17T11:36:03.497Z,195
2017-11-17T11:37:03.500Z,185
2017-11-17T11:38:03.272Z,180
2017-11-17T11:39:03.562Z,180
2017-11-17T11:40:03.336Z,180
2017-11-17T11:41:03.062Z,185
2017-11-17T11:42:03.592Z,180
2017-11-17T11:43:02.837Z,175
2017-11-17T11:44:03.646Z,170
2017-11-17T11:45:03.646Z,160
2017-11-17T11:46:03.420Z,155
2017-11-17T11:47:03.427Z,150
2017-11-17T11:48:03.239Z,150
2017-11-17T11:49:03.742Z,145
2017-11-17T11:50:02.702Z,140
2017-11-17T11:51:03.757Z,135
2017-11-17T11:52:03.515Z,130
2017-11-17T11:53:03.017Z,130
2017-11-17T11:54:03.562Z,130
2017-11-17T11:55:03.841Z,125
2017-11-17T11:56:03.595Z,125
2017-11-17T11:57:03.366Z,125
2017-11-17T11:58:03.621Z,125
2017-11-17T11:59:03.643Z,125
2017-11-17T12:00:03.663Z,130
2017-11-17T12:01:03.680Z,135
2017-11-17T12:02:03.170Z,135
2017-11-17T12:03:03.465Z,140
2017-11-17T12:04:03.990Z,145
2017-11-17T12:05:03.803Z,145
2017-11-17T12:06:03.766Z,150
2017-11-17T12:07:03.540Z,160
2017-11-17T12:08:03.546Z,165
2017-11-17T12:09:03.829Z,165
2017-11-17T12:10:03.585Z,165
2017-11-17T12:11:03.591Z,170
2017-11-17T12:12:04.151Z,170
2017-11-17T12:13:03.882Z,170
2017-11-17T12:14:03.638Z,170
2017-11-17T12:15:04.167Z,170
2017-11-17T12:16:03.162Z,170
2017-11-17T12:17:03.693Z,170
2017-11-17T12:18:03.218Z,165
2017-11-17T12:19:03.760Z,165
2017-11-17T12:20:04.284Z,165
2017-11-17T12:21:03.772Z,165
2017-11-17T12:22:04.086Z,165
2017-11-17T12:23:04.311Z,160
2017-11-17T12:24:03.557Z,155
2017-11-17T12:25:04.375Z,155
2017-11-17T12:26:04.114Z,155
2017-11-17T12:27:03.873Z,155
2017-11-17T12:28:03.879Z,155
2017-11-17T12:29:04.437Z,155
2017-11-17T12:30:04.188Z,160
2017-11-17T12:31:04.198Z,160
2017-11-17T12:32:04.257Z,165
2017-11-17T12:33:04.231Z,165
2017-11-17T12:34:04.502Z,165
2017-11-17T12:35:04.276Z,165
2017-11-17T12:36:04.020Z,165
2017-11-17T12:37:04.298Z,165
2017-11-17T12:38:04.414Z,165
2017-11-17T12:39:04.584Z,165
2017-11-17T12:40:04.356Z,165
2017-11-17T12:41:04.662Z,165
2017-11-17T12:42:04.427Z,165
2017-11-17T12:43:04.149Z,160
2017-11-17T12:44:04.183Z,160
2017-11-17T12:45:04.696Z,155
2017-11-17T12:46:04.442Z,150
2017-11-17T12:47:04.469Z,145
2017-11-17T12:48:04.483Z,145
2017-11-17T12:49:04.770Z,140
2017-11-17T12:50:04.781Z,140
2017-11-17T12:51:04.531Z,135
2017-11-17T12:52:04.813Z,135
2017-11-17T12:53:04.590Z,135
2017-11-17T12:54:04.585Z,135
2017-11-17T12:55:04.599Z,135
2017-11-17T12:56:04.872Z,140
2017-11-17T12:57:04.941Z,140
2017-11-17T12:58:04.938Z,140
2017-11-17T12:59:04.213Z,140
2017-11-17T13:00:04.650Z,140
2017-11-17T13:01:04.464Z,135
2017-11-17T13:02:04.723Z,135
2017-11-17T13:03:04.736Z,135
2017-11-17T13:04:04.770Z,135
2017-11-17T13:05:04.771Z,135
2017-11-17T13:06:04.524Z,135
2017-11-17T13:07:04.752Z,135
2017-11-17T13:08:04.556Z,130
2017-11-17T13:09:04.842Z,125
2017-11-17T13:10:04.601Z,125
2017-11-17T13:11:04.655Z,120
2017-11-17T13:12:04.885Z,120
2017-11-17T13:13:05.155Z,115
2017-11-17T13:14:05.174Z,115
2017-11-17T13:15:04.684Z,110
2017-11-17T13:16:04.694Z,110
2017-11-17T13:17:05.249Z,110
2017-11-17T13:18:04.470Z,110
2017-11-17T13:19:05.025Z,105
2017-11-17T13:20:04.870Z,105
2017-11-17T13:21:05.296Z,105
2017-11-17T13:22:05.058Z,105
2017-11-17T13:23:05.342Z,100
2017-11-17T13:24:05.099Z,105
2017-11-17T13:25:04.340Z,105
2017-11-17T13:26:05.401Z,105
2017-11-17T13:27:05.137Z,105
2017-11-17T13:28:05.457Z,105
2017-11-17T13:29:04.939Z,105
2017-11-17T13:30:05.197Z,105
2017-11-17T13:31:05.472Z,105
2017-11-17T13:32:05.527Z,100
2017-11-17T13:33:05.256Z,100
2017-11-17T13:34:05.531Z,100
2017-11-17T13:35:05.273Z,95
2017-11-17T13:36:05.289Z,95
2017-11-17T13:37:05.048Z,95
2017-11-17T13:38:05.341Z,90
2017-11-17T13:39:05.101Z,90
2017-11-17T13:40:05.624Z,85
2017-11-17T13:41:04.859Z,85
2017-11-17T13:42:05.150Z,85
2017-11-17T13:43:05.159Z,85
2017-11-17T13:44:05.699Z,80
2017-11-17T13:45:05.706Z,80
2017-11-17T13:46:05.455Z,80
2017-11-17T13:47:05.239Z,80
2017-11-17T13:48:05.498Z,80
2017-11-17T13:49:05.533Z,80
2017-11-17T13:50:05.584Z,75
2017-11-17T13:51:05.562Z,75
2017-11-17T13:52:05.828Z,80
2017-11-17T13:53:05.840Z,80
2017-11-17T13:54:05.610Z,80
2017-11-17T13:55:05.903Z,80
2017-11-17T13:56:05.633Z,85
2017-11-17T13:57:05.140Z,85
2017-11-17T13:58:05.686Z,85
2017-11-17T13:59:05.955Z,90
2017-11-17T14:00:05.526Z,90
2017-11-17T14:01:05.977Z,90
2017-11-17T14:02:06.000Z,85
2017-11-17T14:03:06.013Z,85
2017-11-17T14:04:06.045Z,85
2017-11-17T14:05:05.583Z,85
2017-11-17T14:06:06.072Z,85
2017-11-17T14:07:06.090Z,85
2017-11-17T14:08:05.839Z,85
2017-11-17T14:09:05.611Z,85
2017-11-17T14:10:05.870Z,80
2017-11-17T14:11:05.901Z,80
2017-11-17T14:12:05.910Z,80
2017-11-17T14:13:06.189Z,80
2017-11-17T14:14:05.942Z,75
2017-11-17T14:15:05.961Z,75
2017-11-17T14:16:06.244Z,70
2017-11-17T14:17:06.256Z,70
2017-11-17T14:18:05.761Z,65
2017-11-17T14:19:06.315Z,65
2017-11-17T14:20:06.356Z,65